Time;durP1;ratioP1;P1;durP2;ratioP2;P2;SDS_P1;SDS_P2;PMS_P1;PMS_P2;Temp;Humidity;BMP_temperature;BMP_pressure;BME280_temperature;BME280_humidity;BME280_pressure;Samples;Min_cycle;Max_cycle;Signal;HPM_P1;HPM_P2
2021/11/17 02:27:39;;;;;;;13.45;8.23;;;6.00;34.70;;;;;;5083773;28;20048;-68
2021/11/17 02:30:42;;;;;;;14.80;8.05;;;6.10;34.80;;;;;;5079945;28;20050;-68
2021/11/17 02:33:31;;;;;;;13.57;7.72;;;5.90;34.60;;;;;;5084253;28;20048;-69
2021/11/17 02:36:12;;;;;;;14.30;8.15;;;6.00;36.00;;;;;;5086679;28;20040;-70
2021/11/17 02:38:56;;;;;;;15.23;7.97;;;6.00;36.30;;;;;;5077464;28;20452;-68
2021/11/17 02:41:53;;;;;;;14.00;8.30;;;5.90;36.60;;;;;;5081447;28;20067;-68
2021/11/17 02:44:41;;;;;;;13.63;8.05;;;6.00;37.50;;;;;;5103967;27;20036;-68
2021/11/17 02:47:35;;;;;;;15.90;8.15;;;5.90;36.60;;;;;;5103351;28;20043;-68
2021/11/17 02:50:24;;;;;;;13.98;8.07;;;5.90;37.60;;;;;;5098668;27;20043;-68
2021/11/17 02:53:10;;;;;;;14.10;7.85;;;6.00;38.10;;;;;;5102757;28;20038;-68
2021/11/17 02:55:50;;;;;;;14.80;8.57;;;5.90;37.60;;;;;;5104390;28;20051;-68
2021/11/17 02:58:42;;;;;;;13.60;8.45;;;6.00;38.50;;;;;;5100404;28;20108;-69
2021/11/17 03:01:50;;;;;;;14.48;8.73;;;5.90;37.60;;;;;;5099060;28;20052;-69
2021/11/17 03:04:39;;;;;;;15.10;8.50;;;6.00;37.20;;;;;;5022366;28;20124;-69
2021/11/17 03:07:29;;;;;;;13.00;8.25;;;6.00;37.60;;;;;;5096537;28;20051;-68
2021/11/17 03:10:19;;;;;;;17.08;8.70;;;6.00;37.30;;;;;;5087905;28;20127;-69
2021/11/17 03:13:18;;;;;;;16.35;9.50;;;6.00;37.40;;;;;;5072475;28;20126;-69
2021/11/17 03:16:18;;;;;;;14.43;8.40;;;5.90;37.10;;;;;;5099099;28;20113;-69
2021/11/17 03:18:58;;;;;;;15.30;8.25;;;5.90;37.70;;;;;;5100774;28;20043;-69
2021/11/17 03:21:53;;;;;;;14.65;8.25;;;5.90;37.70;;;;;;5099990;28;20044;-68
2021/11/17 03:24:37;;;;;;;16.70;8.82;;;6.00;38.20;;;;;;5060714;28;20039;-68
2021/11/17 03:27:34;;;;;;;15.80;9.25;;;5.90;38.10;;;;;;5104080;28;20526;-68
2021/11/17 03:30:23;;;;;;;17.15;9.55;;;5.90;37.70;;;;;;5101369;28;20122;-69
2021/11/17 03:33:11;;;;;;;17.17;9.63;;;5.90;38.40;;;;;;5102150;28;20048;-68
2021/11/17 03:35:56;;;;;;;16.38;9.73;;;5.90;37.90;;;;;;5102713;28;20043;-68
2021/11/17 03:38:49;;;;;;;16.98;9.00;;;5.90;38.70;;;;;;5101301;28;20052;-68
2021/11/17 03:41:37;;;;;;;16.45;9.20;;;6.00;38.90;;;;;;5101723;28;20325;-68
2021/11/17 03:44:37;;;;;;;19.15;10.52;;;6.00;38.70;;;;;;5099497;28;20032;-68
2021/11/17 03:47:22;;;;;;;17.98;10.07;;;5.90;37.80;;;;;;5101765;28;20040;-67
2021/11/17 03:50:14;;;;;;;17.50;9.65;;;5.90;38.20;;;;;;5102971;28;20074;-68
2021/11/17 03:53:00;;;;;;;18.55;10.95;;;5.80;39.10;;;;;;5101793;28;20093;-68
2021/11/17 03:55:46;;;;;;;19.35;10.32;;;5.90;39.30;;;;;;5100604;28;20486;-68
2021/11/17 03:58:29;;;;;;;16.23;9.35;;;5.90;39.10;;;;;;5103161;28;20336;-67
2021/11/17 04:01:24;;;;;;;16.40;9.63;;;5.90;39.10;;;;;;5106502;27;20046;-68
2021/11/17 04:04:20;;;;;;;16.88;9.23;;;5.90;38.90;;;;;;5105909;27;20048;-68
2021/11/17 04:07:12;;;;;;;18.35;9.68;;;5.90;38.80;;;;;;5106518;28;20075;-68
2021/11/17 04:09:52;;;;;;;18.08;9.70;;;5.90;38.70;;;;;;5107005;27;20037;-67
2021/11/17 04:12:41;;;;;;;20.60;10.45;;;5.90;38.70;;;;;;5103854;27;20083;-67
2021/11/17 04:15:41;;;;;;;20.58;10.82;;;5.90;38.90;;;;;;5104831;27;20054;-69
2021/11/17 04:18:21;;;;;;;20.90;11.20;;;5.90;39.40;;;;;;5082532;28;20047;-69
2021/11/17 04:21:11;;;;;;;20.42;11.07;;;5.90;39.30;;;;;;5104708;28;20679;-69
2021/11/17 04:24:02;;;;;;;22.83;11.18;;;5.90;39.90;;;;;;5105751;27;20040;-67
2021/11/17 04:26:48;;;;;;;19.58;10.45;;;5.80;40.20;;;;;;5105276;28;20047;-67
2021/11/17 04:29:37;;;;;;;19.02;10.07;;;5.80;41.40;;;;;;5105138;28;20127;-69
2021/11/17 04:32:41;;;;;;;18.70;11.20;;;5.90;42.10;;;;;;5106861;27;20084;-67
2021/11/17 04:35:49;;;;;;;19.15;10.75;;;5.80;42.20;;;;;;5101496;27;20116;-67
2021/11/17 04:38:52;;;;;;;18.27;9.88;;;5.80;42.80;;;;;;5086398;27;20826;-67
2021/11/17 04:41:41;;;;;;;18.17;10.23;;;5.80;42.90;;;;;;5107082;27;20040;-68
2021/11/17 04:44:44;;;;;;;20.73;10.48;;;5.80;42.90;;;;;;5106618;28;20411;-67
2021/11/17 04:47:38;;;;;;;18.90;9.60;;;5.80;43.50;;;;;;5103056;27;20094;-67
2021/11/17 04:50:29;;;;;;;22.63;10.63;;;5.70;42.60;;;;;;5102666;27;20052;-68
2021/11/17 04:53:17;;;;;;;20.73;9.73;;;5.70;42.80;;;;;;5105121;28;20055;-67
2021/11/17 04:56:04;;;;;;;19.38;9.80;;;5.80;43.70;;;;;;5107286;27;20039;-68
2021/11/17 04:58:56;;;;;;;23.15;9.98;;;5.80;43.40;;;;;;5101373;28;20035;-67
2021/11/17 05:01:49;;;;;;;19.08;9.93;;;5.80;43.30;;;;;;5098957;28;20077;-67
2021/11/17 05:04:41;;;;;;;18.65;9.73;;;5.80;43.00;;;;;;5107803;28;20553;-67
2021/11/17 05:07:35;;;;;;;20.15;10.05;;;5.70;42.80;;;;;;5104980;28;20418;-67
2021/11/17 05:10:14;;;;;;;19.13;9.63;;;5.70;42.80;;;;;;5099494;28;20423;-67
2021/11/17 05:12:52;;;;;;;19.67;8.85;;;5.70;42.80;;;;;;5106896;28;20062;-67
2021/11/17 05:15:33;;;;;;;19.63;9.18;;;5.70;42.80;;;;;;5104299;27;20458;-68
2021/11/17 05:18:14;;;;;;;19.55;9.68;;;5.70;41.80;;;;;;5099854;27;20084;-68
2021/11/17 05:21:11;;;;;;;17.55;9.15;;;5.70;42.10;;;;;;5103168;28;20039;-68
2021/11/17 05:23:54;;;;;;;16.58;8.65;;;5.70;41.80;;;;;;5107808;28;20127;-68
2021/11/17 05:26:38;;;;;;;18.17;8.88;;;5.70;41.80;;;;;;5105584;28;20044;-68
2021/11/17 05:29:22;;;;;;;17.40;8.77;;;5.70;41.00;;;;;;5093927;27;20127;-68
2021/11/17 05:32:06;;;;;;;18.13;8.85;;;5.80;42.20;;;;;;5103143;27;20051;-68
2021/11/17 05:34:56;;;;;;;20.20;9.27;;;5.70;41.20;;;;;;5110324;27;20187;-68
2021/11/17 05:37:40;;;;;;;19.52;9.35;;;5.70;41.60;;;;;;5102623;28;20054;-68
2021/11/17 05:40:22;;;;;;;20.50;9.93;;;5.70;40.80;;;;;;5099233;27;20786;-68
2021/11/17 05:43:03;;;;;;;17.33;9.25;;;5.70;41.60;;;;;;5107922;27;20131;-68
2021/11/17 05:45:45;;;;;;;19.77;10.75;;;5.80;41.90;;;;;;5104299;27;20495;-69
2021/11/17 05:48:28;;;;;;;20.10;9.80;;;5.70;41.00;;;;;;5101067;28;20055;-68
2021/11/17 05:51:43;;;;;;;17.20;9.10;;;5.70;41.40;;;;;;5106353;28;20036;-68
2021/11/17 05:54:26;;;;;;;19.15;9.23;;;5.70;40.90;;;;;;5067292;28;20568;-68
2021/11/17 05:57:21;;;;;;;16.25;8.30;;;5.70;41.60;;;;;;5103360;27;20108;-68
2021/11/17 06:00:12;;;;;;;18.20;8.90;;;5.50;42.60;;;;;;5099321;27;20249;-68
2021/11/17 06:02:56;;;;;;;17.85;9.05;;;5.60;42.70;;;;;;5101974;27;20146;-68
2021/11/17 06:05:24;;;;;;;15.10;7.82;;;5.70;42.80;;;;;;5083436;28;20135;-67
2021/11/17 06:07:57;;;;;;;17.55;9.57;;;5.60;41.10;;;;;;5100973;27;20063;-68
2021/11/17 06:10:33;;;;;;;18.48;9.52;;;5.60;40.20;;;;;;5103056;28;20452;-68
2021/11/17 06:13:06;;;;;;;17.95;9.30;;;5.60;41.10;;;;;;5107459;27;20040;-68
2021/11/17 06:15:36;;;;;;;17.35;9.45;;;5.60;41.00;;;;;;5103047;27;20132;-69
2021/11/17 06:18:16;;;;;;;18.13;8.98;;;5.60;40.30;;;;;;5099530;28;20101;-68
2021/11/17 06:20:57;;;;;;;17.63;8.68;;;5.60;40.20;;;;;;5104242;28;20255;-68
2021/11/17 06:23:34;;;;;;;15.25;8.30;;;5.60;40.00;;;;;;5101582;28;20612;-67
2021/11/17 06:26:05;;;;;;;15.68;8.95;;;5.50;39.30;;;;;;5101851;28;20122;-68
2021/11/17 06:28:33;;;;;;;16.60;8.23;;;5.50;40.30;;;;;;5100908;28;20047;-68
2021/11/17 06:31:04;;;;;;;16.00;8.25;;;5.40;39.80;;;;;;5101310;27;20047;-68
2021/11/17 06:33:32;;;;;;;19.98;8.90;;;5.40;40.30;;;;;;5101535;28;20039;-68
2021/11/17 06:36:04;;;;;;;17.67;8.43;;;5.50;40.50;;;;;;5095656;27;20436;-68
2021/11/17 06:38:40;;;;;;;16.52;8.60;;;5.50;39.00;;;;;;5099658;27;20108;-68
2021/11/17 06:41:10;;;;;;;16.50;8.80;;;5.50;38.70;;;;;;5103601;28;20379;-68
2021/11/17 06:43:43;;;;;;;15.57;8.82;;;5.50;38.30;;;;;;5100887;28;20544;-68
2021/11/17 06:46:11;;;;;;;15.40;8.13;;;5.50;37.40;;;;;;5104404;27;20498;-69
2021/11/17 06:48:47;;;;;;;14.88;8.05;;;5.50;37.20;;;;;;5102642;27;20044;-68
2021/11/17 06:51:15;;;;;;;15.50;8.05;;;5.60;36.30;;;;;;5102767;28;20062;-68
2021/11/17 06:53:46;;;;;;;19.13;8.60;;;5.50;35.10;;;;;;5101648;28;20049;-67
2021/11/17 06:56:20;;;;;;;17.00;8.02;;;5.50;35.70;;;;;;5107539;27;20036;-68
2021/11/17 06:58:52;;;;;;;18.45;8.23;;;5.60;34.70;;;;;;5099736;27;20043;-68
2021/11/17 07:01:20;;;;;;;15.85;8.25;;;5.50;34.30;;;;;;5102650;28;20052;-68
2021/11/17 07:03:53;;;;;;;16.77;7.82;;;5.60;35.30;;;;;;5104161;28;20063;-68
2021/11/17 07:06:26;;;;;;;16.83;8.55;;;5.70;34.50;;;;;;5103091;28;20047;-68
2021/11/17 07:08:58;;;;;;;16.08;8.05;;;5.70;34.40;;;;;;5098317;27;20066;-67
2021/11/17 07:11:27;;;;;;;15.45;8.38;;;5.60;34.30;;;;;;5104190;28;20243;-67
2021/11/17 07:13:59;;;;;;;16.52;8.60;;;5.70;34.40;;;;;;5106065;28;20071;-69
2021/11/17 07:16:27;;;;;;;18.95;8.50;;;5.80;33.30;;;;;;5102475;27;20031;-68
2021/11/17 07:18:56;;;;;;;13.95;7.55;;;5.80;33.60;;;;;;5099629;28;20055;-69
2021/11/17 07:21:24;;;;;;;15.32;8.70;;;5.70;32.50;;;;;;5102803;27;20040;-68
2021/11/17 07:23:58;;;;;;;15.77;7.88;;;5.80;33.30;;;;;;5078310;28;20042;-68
2021/11/17 07:26:28;;;;;;;15.98;8.02;;;5.70;32.80;;;;;;5100638;28;20504;-68
2021/11/17 07:28:56;;;;;;;15.20;8.18;;;5.80;32.30;;;;;;5101232;28;20126;-68
2021/11/17 07:31:24;;;;;;;13.55;7.60;;;5.80;29.70;;;;;;5103999;28;20105;-68
2021/11/17 07:33:56;;;;;;;13.07;6.97;;;5.80;30.40;;;;;;5102319;28;20078;-68
2021/11/17 07:36:30;;;;;;;12.80;6.40;;;5.90;29.80;;;;;;5104436;28;20052;-69
2021/11/17 07:38:58;;;;;;;17.48;6.82;;;6.00;28.30;;;;;;5094075;28;20095;-69
2021/11/17 07:41:31;;;;;;;11.18;5.45;;;6.00;26.40;;;;;;5101928;28;20059;-67
2021/11/17 07:44:03;;;;;;;11.52;5.90;;;6.00;25.60;;;;;;5104412;28;20047;-68
2021/11/17 07:46:37;;;;;;;11.95;6.32;;;5.90;25.20;;;;;;5101574;28;20039;-69
2021/11/17 07:49:09;;;;;;;11.13;5.90;;;6.00;25.60;;;;;;5099637;28;20075;-69
2021/11/17 07:51:42;;;;;;;12.82;6.80;;;5.90;25.80;;;;;;5103792;28;20431;-69
2021/11/17 07:54:14;;;;;;;11.77;6.22;;;5.90;26.80;;;;;;5100280;28;20931;-69
2021/11/17 07:56:50;;;;;;;13.82;6.95;;;6.00;27.10;;;;;;5097471;27;20040;-68
2021/11/17 07:59:23;;;;;;;13.10;6.43;;;6.00;27.00;;;;;;5097325;28;20058;-68
2021/11/17 08:01:53;;;;;;;11.38;6.18;;;5.90;27.30;;;;;;5101650;28;20071;-68
2021/11/17 08:04:37;;;;;;;8.55;4.80;;;6.00;28.10;;;;;;5101509;28;20426;-69
2021/11/17 08:07:14;;;;;;;8.55;4.93;;;5.80;26.90;;;;;;5102030;28;20047;-65
2021/11/17 08:09:46;;;;;;;9.10;4.03;;;5.70;28.90;;;;;;5098447;28;20102;-66
2021/11/17 08:12:16;;;;;;;9.23;4.40;;;5.60;28.10;;;;;;5101725;28;20059;-66
2021/11/17 08:14:49;;;;;;;7.30;4.03;;;5.50;30.10;;;;;;5102496;28;20031;-66
2021/11/17 08:17:22;;;;;;;9.38;4.13;;;5.50;29.50;;;;;;5099835;28;20310;-66
2021/11/17 08:19:51;;;;;;;9.05;4.00;;;5.60;30.10;;;;;;5101475;28;20284;-66
2021/11/17 08:22:23;;;;;;;7.22;3.95;;;5.70;30.10;;;;;;5101589;28;20538;-66
2021/11/17 08:24:56;;;;;;;11.48;5.40;;;5.70;30.60;;;;;;5100954;28;20494;-66
2021/11/17 08:27:25;;;;;;;8.27;4.65;;;5.60;29.70;;;;;;5103916;28;20154;-66
2021/11/17 08:29:58;;;;;;;9.50;4.70;;;5.70;30.10;;;;;;5100386;28;20066;-66
2021/11/17 08:32:28;;;;;;;7.70;4.38;;;5.70;30.10;;;;;;5101313;28;20043;-66
2021/11/17 08:34:55;;;;;;;7.65;4.30;;;5.70;29.90;;;;;;5101270;28;20137;-66
2021/11/17 08:37:23;;;;;;;9.80;4.65;;;5.70;29.90;;;;;;5100795;27;20146;-66
2021/11/17 08:39:57;;;;;;;7.88;3.80;;;5.70;30.10;;;;;;5099779;28;20036;-66
2021/11/17 08:42:32;;;;;;;7.80;4.20;;;5.70;29.60;;;;;;5102994;28;20079;-66
2021/11/17 08:45:00;;;;;;;8.05;4.32;;;5.80;30.20;;;;;;5104482;28;20296;-67
2021/11/17 08:47:33;;;;;;;8.50;3.85;;;5.70;29.50;;;;;;5104381;28;20720;-66
2021/11/17 08:50:06;;;;;;;7.63;3.95;;;5.70;30.10;;;;;;5098165;27;20051;-66
2021/11/17 08:52:36;;;;;;;8.57;4.38;;;5.60;30.00;;;;;;5101602;28;20075;-66
2021/11/17 08:55:06;;;;;;;8.23;3.92;;;5.70;30.20;;;;;;5107218;28;20161;-66
2021/11/17 08:57:48;;;;;;;12.75;5.35;;;5.80;30.30;;;;;;5103132;28;20039;-66
2021/11/17 09:00:18;;;;;;;8.52;4.53;;;5.70;31.50;;;;;;5102781;28;20056;-65
2021/11/17 09:02:54;;;;;;;7.07;4.15;;;5.60;31.60;;;;;;5096971;28;20044;-66
2021/11/17 09:05:25;;;;;;;6.82;4.07;;;5.70;33.30;;;;;;5102935;27;20047;-67
2021/11/17 09:07:58;;;;;;;8.57;3.95;;;5.60;33.20;;;;;;5102003;28;20696;-66
2021/11/17 09:10:28;;;;;;;6.47;3.83;;;5.50;30.70;;;;;;5108005;28;20075;-65
2021/11/17 09:13:01;;;;;;;7.72;3.63;;;5.50;31.40;;;;;;5104700;28;20036;-67
2021/11/17 09:15:34;;;;;;;6.53;4.30;;;5.50;30.10;;;;;;5104154;27;20446;-66
2021/11/17 09:18:04;;;;;;;6.35;3.60;;;5.60;30.10;;;;;;5102246;27;20045;-65
2021/11/17 09:20:32;;;;;;;7.10;3.60;;;5.60;29.30;;;;;;5102622;27;20166;-66
2021/11/17 09:23:08;;;;;;;6.55;3.85;;;5.60;28.50;;;;;;5100434;27;20441;-67
2021/11/17 09:25:37;;;;;;;14.43;8.02;;;5.60;26.80;;;;;;5108058;28;20122;-66
2021/11/17 09:28:07;;;;;;;6.00;3.58;;;5.80;26.90;;;;;;5098299;27;20142;-66
2021/11/17 09:30:39;;;;;;;6.13;3.22;;;5.50;25.90;;;;;;5103018;28;20044;-66
2021/11/17 09:33:14;;;;;;;5.63;3.00;;;5.70;24.80;;;;;;5105906;27;20071;-66
2021/11/17 09:35:43;;;;;;;4.57;2.90;;;5.70;25.50;;;;;;5097058;27;20139;-67
2021/11/17 09:38:20;;;;;;;5.15;2.85;;;5.80;24.50;;;;;;5102762;28;20047;-67
2021/11/17 09:40:53;;;;;;;3.55;2.40;;;5.90;23.00;;;;;;5105702;27;20439;-66
2021/11/17 09:43:28;;;;;;;6.57;3.22;;;5.80;21.30;;;;;;5082207;28;20071;-66
2021/11/17 09:45:58;;;;;;;5.57;2.55;;;5.90;21.30;;;;;;5086454;28;20052;-66
2021/11/17 09:48:34;;;;;;;5.38;2.58;;;6.00;20.20;;;;;;5094850;28;20123;-67
2021/11/17 09:51:08;;;;;;;4.55;2.10;;;6.30;18.10;;;;;;5092334;27;20044;-66
2021/11/17 09:53:45;;;;;;;3.72;2.08;;;6.30;16.90;;;;;;5079720;27;20102;-66
2021/11/17 09:56:18;;;;;;;2.47;1.58;;;6.20;15.40;;;;;;5088927;28;20040;-67
2021/11/17 09:58:54;;;;;;;8.32;1.60;;;6.20;13.70;;;;;;5077058;28;20476;-66
2021/11/17 10:01:25;;;;;;;2.15;1.23;;;6.10;13.70;;;;;;5103953;27;20530;-67
2021/11/17 10:04:05;;;;;;;1.88;1.27;;;6.10;14.30;;;;;;5107344;28;20150;-65
2021/11/17 10:07:11;;;;;;;2.25;1.48;;;6.00;14.20;;;;;;5104819;27;20048;-68
2021/11/17 10:10:02;;;;;;;;;;;6.10;14.10;;;;;;5099598;28;20142;-67
2021/11/17 10:12:53;;;;;;;2.10;1.40;;;6.20;13.40;;;;;;5102661;28;20039;-65
2021/11/17 10:15:24;;;;;;;3.15;1.80;;;6.30;13.80;;;;;;5107136;27;20154;-65
2021/11/17 10:17:55;;;;;;;3.50;1.92;;;6.30;13.40;;;;;;5101557;27;20388;-66
2021/11/17 10:20:37;;;;;;;4.10;1.60;;;6.20;13.80;;;;;;5103657;28;20652;-66
2021/11/17 10:23:19;;;;;;;2.95;1.60;;;6.40;13.80;;;;;;5101677;27;20054;-65
2021/11/17 10:25:54;;;;;;;3.17;2.00;;;6.20;13.30;;;;;;5101524;28;20036;-66
2021/11/17 10:28:27;;;;;;;2.20;1.30;;;6.10;13.70;;;;;;5100520;28;20502;-66
2021/11/17 10:31:07;;;;;;;3.05;1.90;;;6.00;14.30;;;;;;5105086;28;20062;-66
2021/11/17 10:33:48;;;;;;;3.45;1.48;;;6.10;13.40;;;;;;5103334;27;20109;-65
2021/11/17 10:36:20;;;;;;;2.45;1.50;;;6.30;12.80;;;;;;5103035;27;20138;-65
2021/11/17 10:38:51;;;;;;;2.97;1.13;;;6.30;13.20;;;;;;5103870;27;20633;-65
2021/11/17 10:41:25;;;;;;;2.67;1.70;;;6.50;10.40;;;;;;5100526;27;20043;-66
2021/11/17 10:43:58;;;;;;;3.28;1.52;;;6.50;10.90;;;;;;5105668;27;20076;-66
2021/11/17 10:46:33;;;;;;;2.53;1.85;;;6.30;8.80;;;;;;5101909;28;20048;-66
2021/11/17 10:49:11;;;;;;;2.13;1.50;;;6.50;9.00;;;;;;5095986;28;20032;-66
2021/11/17 10:51:51;;;;;;;6.70;1.98;;;6.40;9.80;;;;;;5104419;27;20461;-66
2021/11/17 10:54:28;;;;;;;3.00;1.58;;;6.40;9.40;;;;;;5106313;28;20096;-66
2021/11/17 10:57:09;;;;;;;3.60;1.88;;;6.20;9.00;;;;;;5101846;27;20487;-66
2021/11/17 10:59:40;;;;;;;2.22;1.40;;;6.30;9.50;;;;;;5097744;28;20043;-66
2021/11/17 11:02:12;;;;;;;4.28;1.20;;;6.20;9.00;;;;;;5104441;27;20092;-66
2021/11/17 11:04:44;;;;;;;1.95;1.30;;;6.20;9.80;;;;;;5103201;27;20065;-66
2021/11/17 11:07:17;;;;;;;1.80;1.27;;;6.30;8.80;;;;;;5104673;28;20039;-66
2021/11/17 11:09:54;;;;;;;1.98;1.23;;;6.40;9.30;;;;;;5101628;28;20997;-66
2021/11/17 11:12:26;;;;;;;1.10;0.90;;;6.30;8.00;;;;;;5100554;27;20046;-70
2021/11/17 11:15:02;;;;;;;2.05;0.93;;;6.20;7.30;;;;;;5107397;27;20526;-66
2021/11/17 11:17:36;;;;;;;3.17;1.20;;;6.20;7.00;;;;;;5098818;28;20051;-66
2021/11/17 11:20:43;;;;;;;1.40;1.00;;;6.40;7.50;;;;;;5100114;27;20035;-66
2021/11/17 11:23:20;;;;;;;5.55;1.10;;;6.50;6.30;;;;;;5098921;28;20070;-66
2021/11/17 11:26:02;;;;;;;1.63;0.80;;;6.30;4.40;;;;;;5104654;28;20043;-66
2021/11/17 11:28:36;;;;;;;2.88;0.80;;;6.20;4.70;;;;;;5099277;28;20044;-65
2021/11/17 11:31:43;;;;;;;1.60;1.10;;;6.30;4.70;;;;;;5095033;27;20036;-66
2021/11/17 11:34:48;;;;;;;1.42;0.90;;;6.50;4.20;;;;;;5097107;28;20400;-67
2021/11/17 11:37:56;;;;;;;2.03;0.90;;;6.50;3.70;;;;;;5100312;28;20112;-67
2021/11/17 11:41:03;;;;;;;2.15;0.70;;;6.60;3.20;;;;;;5102870;28;20057;-66
2021/11/17 11:43:32;;;;;;;1.52;1.10;;;6.60;3.80;;;;;;5095741;28;20056;-66
2021/11/17 11:46:30;;;;;;;1.73;1.05;;;6.50;4.70;;;;;;5102679;28;20112;-66
2021/11/17 11:49:21;;;;;;;1.40;0.93;;;6.50;5.30;;;;;;5102686;28;20028;-65
2021/11/17 11:52:08;;;;;;;1.55;0.95;;;6.60;5.20;;;;;;5101581;28;20063;-66
2021/11/17 11:55:06;;;;;;;1.50;0.98;;;6.60;5.40;;;;;;5098219;28;20048;-66
2021/11/17 11:57:41;;;;;;;4.20;1.15;;;6.40;6.20;;;;;;5099508;28;21046;-66
2021/11/17 12:00:17;;;;;;;1.60;1.30;;;6.40;6.30;;;;;;5097756;28;20040;-65
2021/11/17 12:02:50;;;;;;;1.10;0.73;;;6.30;6.20;;;;;;5098852;28;20138;-66
2021/11/17 12:05:41;;;;;;;1.35;0.73;;;6.40;6.90;;;;;;5104328;28;20125;-66
2021/11/17 12:08:14;;;;;;;1.10;0.80;;;6.30;7.50;;;;;;5098816;28;20039;-66
2021/11/17 12:10:57;;;;;;;2.83;1.75;;;6.30;7.90;;;;;;5102537;28;20043;-67
2021/11/17 12:13:32;;;;;;;2.05;1.27;;;6.30;8.40;;;;;;5102017;28;20100;-66
2021/11/17 12:16:04;;;;;;;1.98;1.10;;;6.20;9.40;;;;;;5105695;28;20099;-66
2021/11/17 12:18:44;;;;;;;4.38;1.63;;;6.30;9.10;;;;;;5099610;28;20049;-66
2021/11/17 12:21:18;;;;;;;5.05;1.30;;;6.40;8.90;;;;;;5104306;28;20048;-66
2021/11/17 12:24:02;;;;;;;1.58;0.98;;;6.20;9.40;;;;;;5108648;27;20047;-66
2021/11/17 12:26:34;;;;;;;2.25;1.48;;;6.10;9.70;;;;;;5105108;27;20035;-66
2021/11/17 12:29:12;;;;;;;2.58;1.88;;;6.20;10.60;;;;;;5102648;28;20043;-67
2021/11/17 12:31:53;;;;;;;2.15;1.08;;;6.20;10.30;;;;;;5105951;28;20494;-66
2021/11/17 12:34:25;;;;;;;4.25;1.80;;;6.20;9.70;;;;;;5106412;28;20044;-66
2021/11/17 12:37:11;;;;;;;2.67;1.60;;;6.20;10.10;;;;;;5105144;27;20071;-66
2021/11/17 12:39:52;;;;;;;5.13;1.52;;;6.30;9.80;;;;;;5102393;28;20054;-64
2021/11/17 12:42:30;;;;;;;2.08;1.23;;;6.30;9.80;;;;;;5105634;28;20047;-65
2021/11/17 12:45:00;;;;;;;2.92;1.20;;;6.20;9.70;;;;;;5106496;27;20096;-65
2021/11/17 12:47:42;;;;;;;1.60;1.00;;;6.20;9.70;;;;;;5101021;27;20835;-66
2021/11/17 12:50:20;;;;;;;2.25;1.27;;;6.10;8.90;;;;;;5105874;28;20054;-66
2021/11/17 12:52:55;;;;;;;2.30;1.23;;;6.10;9.40;;;;;;5104276;28;20518;-65
2021/11/17 12:55:34;;;;;;;2.75;1.20;;;6.20;9.20;;;;;;5105859;27;20050;-67
2021/11/17 12:58:06;;;;;;;3.58;1.60;;;6.20;8.70;;;;;;5104177;28;20038;-66
2021/11/17 13:00:58;;;;;;;2.30;1.30;;;6.10;8.90;;;;;;5101410;28;20187;-66
2021/11/17 13:03:37;;;;;;;2.47;1.58;;;6.30;8.70;;;;;;5102235;28;20084;-66
2021/11/17 13:06:23;;;;;;;2.92;1.40;;;6.30;8.80;;;;;;5105297;27;20048;-66
2021/11/17 13:09:12;;;;;;;2.20;1.33;;;6.10;9.70;;;;;;5102042;27;20070;-66
2021/11/17 13:12:02;;;;;;;2.10;1.20;;;6.20;9.70;;;;;;5104939;27;20048;-66
2021/11/17 13:14:33;;;;;;;2.97;1.35;;;6.20;9.70;;;;;;5102229;28;20040;-66
2021/11/17 13:17:07;;;;;;;2.88;1.27;;;6.30;9.80;;;;;;5106504;27;20084;-67
2021/11/17 13:19:40;;;;;;;2.22;1.52;;;6.30;9.80;;;;;;5100017;28;20100;-66
2021/11/17 13:22:26;;;;;;;2.88;1.40;;;6.30;9.50;;;;;;5079178;28;20495;-66
2021/11/17 13:25:19;;;;;;;2.65;1.30;;;6.20;9.60;;;;;;5105452;27;20048;-66
2021/11/17 13:27:53;;;;;;;2.80;1.70;;;6.20;9.70;;;;;;5095298;28;20406;-66
2021/11/17 13:30:34;;;;;;;3.83;1.58;;;6.10;9.10;;;;;;5097757;28;20473;-66
2021/11/17 13:33:20;;;;;;;2.55;1.52;;;6.10;9.70;;;;;;5105944;28;20043;-66
2021/11/17 13:36:06;;;;;;;2.90;1.70;;;6.10;9.70;;;;;;5105398;27;20051;-66
2021/11/17 13:38:52;;;;;;;2.33;1.58;;;6.20;10.20;;;;;;5099901;27;20040;-65
2021/11/17 13:41:56;;;;;;;2.65;1.92;;;6.20;9.70;;;;;;5103760;28;20571;-66
2021/11/17 13:44:27;;;;;;;3.63;1.80;;;6.10;9.90;;;;;;5104255;27;20035;-67
2021/11/17 13:47:17;;;;;;;3.17;1.95;;;6.10;9.80;;;;;;5095549;27;20506;-66
2021/11/17 13:49:52;;;;;;;4.50;2.33;;;6.20;9.90;;;;;;5102039;27;20057;-66
2021/11/17 13:52:27;;;;;;;4.32;2.25;;;6.10;10.70;;;;;;5106535;28;20075;-66
2021/11/17 13:54:56;;;;;;;4.05;2.45;;;6.20;10.30;;;;;;5105043;27;20039;-66
2021/11/17 13:57:25;;;;;;;5.15;2.03;;;6.20;10.30;;;;;;5103126;27;20123;-66
2021/11/17 13:59:56;;;;;;;7.03;2.30;;;6.20;10.70;;;;;;5103634;28;20061;-66
2021/11/17 14:02:24;;;;;;;4.15;2.30;;;6.30;10.60;;;;;;5101991;28;20466;-65
2021/11/17 14:04:57;;;;;;;4.88;2.30;;;6.30;10.50;;;;;;5107889;27;20044;-66
2021/11/17 14:07:26;;;;;;;5.15;2.60;;;6.20;10.30;;;;;;5103384;28;20039;-65
2021/11/17 14:09:54;;;;;;;4.43;2.83;;;6.30;11.70;;;;;;5100889;28;20055;-66
2021/11/17 14:12:22;;;;;;;5.75;2.42;;;6.30;10.70;;;;;;5104263;28;20163;-66
2021/11/17 14:14:55;;;;;;;3.67;2.08;;;6.30;10.80;;;;;;5104149;27;20514;-66
2021/11/17 14:17:24;;;;;;;10.52;2.50;;;6.50;11.30;;;;;;5106120;27;20134;-66
2021/11/17 14:19:55;;;;;;;5.00;2.80;;;6.30;11.20;;;;;;5103841;28;20080;-66
2021/11/17 14:22:43;;;;;;;4.10;2.65;;;6.40;11.40;;;;;;5100425;27;20058;-66
2021/11/17 14:25:16;;;;;;;4.00;2.60;;;6.40;11.20;;;;;;5107031;27;20047;-66
2021/11/17 14:27:50;;;;;;;6.97;2.85;;;6.30;11.90;;;;;;5100515;28;20150;-66
2021/11/17 14:30:27;;;;;;;4.43;2.47;;;6.40;12.20;;;;;;5101170;27;20063;-66
2021/11/17 14:33:02;;;;;;;4.68;2.47;;;6.50;11.20;;;;;;5103297;27;20054;-67
2021/11/17 14:35:31;;;;;;;4.80;3.00;;;6.60;10.70;;;;;;5105203;28;20111;-67
2021/11/17 14:38:01;;;;;;;5.18;2.50;;;6.50;9.90;;;;;;5102656;27;20049;-66
2021/11/17 14:40:34;;;;;;;3.78;2.47;;;6.50;10.70;;;;;;5099639;28;20122;-66
2021/11/17 14:43:02;;;;;;;4.25;2.70;;;6.50;10.90;;;;;;5099398;28;20059;-66
2021/11/17 14:45:32;;;;;;;5.90;2.70;;;6.60;10.80;;;;;;5099423;27;20116;-66
2021/11/17 14:48:04;;;;;;;3.53;2.20;;;6.60;10.60;;;;;;5102369;27;20096;-66
2021/11/17 14:50:36;;;;;;;3.05;2.20;;;6.50;11.40;;;;;;5099476;28;20153;-66
2021/11/17 14:53:06;;;;;;;3.67;2.03;;;6.40;11.80;;;;;;5102453;28;20038;-69
2021/11/17 14:55:34;;;;;;;4.65;2.67;;;6.40;12.20;;;;;;5107052;27;20368;-66
2021/11/17 14:58:08;;;;;;;;;;;6.50;12.60;;;;;;5101361;28;20047;-67
2021/11/17 15:00:47;;;;;;;6.03;2.60;;;6.50;12.70;;;;;;5103672;28;19927;-66
2021/11/17 15:03:18;;;;;;;4.93;2.58;;;6.50;12.90;;;;;;5099965;28;20075;-66
2021/11/17 15:05:50;;;;;;;4.88;2.58;;;6.30;13.40;;;;;;5098811;28;20383;-66
2021/11/17 15:08:18;;;;;;;3.70;2.58;;;6.30;13.40;;;;;;5101835;27;20047;-66
2021/11/17 15:10:48;;;;;;;4.43;2.83;;;6.40;13.60;;;;;;5104769;28;20478;-66
2021/11/17 15:13:20;;;;;;;7.72;3.40;;;6.40;13.70;;;;;;5102155;28;20055;-66
2021/11/17 15:15:55;;;;;;;7.93;3.25;;;6.40;13.30;;;;;;5104881;27;20168;-66
2021/11/17 15:18:23;;;;;;;6.10;2.90;;;6.40;13.80;;;;;;5101496;27;20084;-66
2021/11/17 15:20:56;;;;;;;4.03;2.90;;;6.40;13.80;;;;;;5099570;28;20146;-67
2021/11/17 15:23:26;;;;;;;5.07;3.30;;;6.40;13.50;;;;;;5102501;28;20126;-66
2021/11/17 15:26:01;;;;;;;8.13;3.22;;;6.40;13.50;;;;;;5102440;28;20138;-66
2021/11/17 15:28:37;;;;;;;5.47;3.20;;;6.40;13.50;;;;;;5101520;27;20122;-66
2021/11/17 15:31:11;;;;;;;5.47;3.17;;;6.40;13.40;;;;;;5104918;28;20044;-66
2021/11/17 15:33:45;;;;;;;5.18;3.35;;;6.50;13.50;;;;;;5102685;28;20051;-66
2021/11/17 15:36:25;;;;;;;6.22;3.47;;;6.50;13.50;;;;;;5101193;28;20538;-66
2021/11/17 15:38:59;;;;;;;8.18;3.15;;;6.40;13.40;;;;;;5099695;28;20096;-66
2021/11/17 15:41:37;;;;;;;;;;;6.30;13.40;;;;;;5097169;28;20502;-66
2021/11/17 15:44:12;;;;;;;5.13;3.10;;;6.30;14.10;;;;;;5099440;28;20010;-66
2021/11/17 15:47:00;;;;;;;5.20;3.20;;;6.30;13.80;;;;;;5108271;28;20047;-66
2021/11/17 15:49:32;;;;;;;7.35;3.00;;;6.40;14.20;;;;;;5097622;28;20040;-66
2021/11/17 15:52:00;;;;;;;4.60;3.15;;;6.40;14.10;;;;;;5100312;28;20061;-67
2021/11/17 15:54:34;;;;;;;6.90;3.63;;;6.40;14.40;;;;;;5109192;28;20040;-67
2021/11/17 15:57:05;;;;;;;5.95;3.60;;;6.40;14.10;;;;;;5105762;27;20553;-67
2021/11/17 15:59:35;;;;;;;3.47;2.75;;;6.40;14.60;;;;;;5093063;27;20095;-67
2021/11/17 16:02:06;;;;;;;9.07;4.28;;;6.30;14.20;;;;;;5107318;28;20048;-67
2021/11/17 16:04:44;;;;;;;4.55;2.80;;;6.30;15.00;;;;;;5106025;27;20047;-67
2021/11/17 16:07:22;;;;;;;6.78;4.32;;;6.40;14.50;;;;;;5106520;28;20246;-66
2021/11/17 16:09:54;;;;;;;6.55;4.30;;;6.30;14.60;;;;;;5107104;27;20032;-66
2021/11/17 16:12:28;;;;;;;7.28;4.35;;;6.30;15.90;;;;;;5104320;27;20444;-66
2021/11/17 16:15:01;;;;;;;10.73;4.68;;;6.30;15.20;;;;;;5102019;28;20522;-67
2021/11/17 16:17:37;;;;;;;8.68;3.85;;;6.30;15.60;;;;;;5108904;27;21399;-67
2021/11/17 16:20:10;;;;;;;4.95;3.55;;;6.30;15.30;;;;;;5103680;27;20047;-67
2021/11/17 16:23:01;;;;;;;7.10;4.28;;;6.30;15.80;;;;;;5105420;28;20102;-66